Time;durP1;ratioP1;P1;durP2;ratioP2;P2;SDS_P1;SDS_P2;PMS_P1;PMS_P2;Temp;Humidity;BMP_temperature;BMP_pressure;BME280_temperature;BME280_humidity;BME280_pressure;Samples;Min_cycle;Max_cycle;Signal;HPM_P1;HPM_P2
2022/07/23 00:01:47;;;;;;;17.98;9.05;;;19.50;99.90;;;;;;4935044;29;20453;-85
2022/07/23 00:04:15;;;;;;;16.65;8.05;;;19.50;99.90;;;;;;4951259;28;20399;-84
2022/07/23 00:06:42;;;;;;;15.00;8.05;;;19.40;99.90;;;;;;4936305;29;20409;-85
2022/07/23 00:09:10;;;;;;;14.68;8.13;;;19.50;99.90;;;;;;4967190;28;20398;-84
2022/07/23 00:11:38;;;;;;;15.13;8.20;;;19.50;99.90;;;;;;4936400;29;20498;-85
2022/07/23 00:14:05;;;;;;;14.27;8.88;;;19.40;99.90;;;;;;4936201;29;20911;-84
2022/07/23 00:16:33;;;;;;;14.85;7.97;;;19.40;99.90;;;;;;4936235;29;20393;-85
2022/07/23 00:19:02;;;;;;;16.98;8.30;;;19.30;99.90;;;;;;4934205;29;20402;-85
2022/07/23 00:21:30;;;;;;;13.52;6.95;;;19.30;99.90;;;;;;4936018;29;20923;-85
2022/07/23 00:23:58;;;;;;;12.25;7.45;;;19.30;99.90;;;;;;4951006;28;20413;-85
2022/07/23 00:26:26;;;;;;;16.02;8.02;;;19.30;99.90;;;;;;4935996;29;20434;-85
2022/07/23 00:28:53;;;;;;;15.07;8.47;;;19.30;99.90;;;;;;4935868;29;20729;-85
2022/07/23 00:31:21;;;;;;;16.70;8.07;;;19.30;99.90;;;;;;4966606;28;20421;-85
2022/07/23 00:33:48;;;;;;;11.57;7.70;;;19.30;99.90;;;;;;4966496;28;20424;-85
2022/07/23 00:36:16;;;;;;;15.25;8.30;;;19.40;99.90;;;;;;4935906;29;20416;-85
2022/07/23 00:38:44;;;;;;;13.10;8.00;;;19.30;99.90;;;;;;4935835;29;20394;-85
2022/07/23 00:41:11;;;;;;;16.88;8.85;;;19.30;99.90;;;;;;4966468;28;20398;-84
2022/07/23 00:43:39;;;;;;;13.55;8.23;;;19.20;99.90;;;;;;4934500;29;20406;-86
2022/07/23 00:46:07;;;;;;;13.32;7.40;;;19.20;99.90;;;;;;4966426;28;20497;-85
2022/07/23 00:48:34;;;;;;;14.65;7.65;;;19.20;99.90;;;;;;4966245;28;20402;-85
2022/07/23 00:51:02;;;;;;;12.77;7.80;;;19.20;99.90;;;;;;4934346;29;20912;-84
2022/07/23 00:53:31;;;;;;;13.40;7.35;;;19.20;99.90;;;;;;4935483;29;20394;-84
2022/07/23 00:55:59;;;;;;;14.10;8.73;;;19.20;99.90;;;;;;4966326;28;20493;-85
2022/07/23 00:58:27;;;;;;;17.15;9.10;;;19.20;99.90;;;;;;4934335;29;20996;-85
2022/07/23 01:00:55;;;;;;;15.20;8.80;;;19.10;99.90;;;;;;4935446;29;20409;-84
2022/07/23 01:03:23;;;;;;;10.23;6.63;;;19.10;99.90;;;;;;4934117;29;20585;-86
2022/07/23 01:05:51;;;;;;;16.95;8.40;;;19.20;99.90;;;;;;4934231;29;20401;-84
2022/07/23 01:08:18;;;;;;;14.00;8.77;;;19.20;99.90;;;;;;4935276;29;20428;-85
2022/07/23 01:10:51;;;;;;;13.40;7.82;;;19.10;99.90;;;;;;4934092;29;20405;-85
2022/07/23 01:13:19;;;;;;;17.37;8.80;;;19.00;99.90;;;;;;4935368;29;20889;-85
2022/07/23 01:15:46;;;;;;;13.48;7.57;;;19.00;99.90;;;;;;4965861;28;20924;-84
2022/07/23 01:18:14;;;;;;;13.73;8.48;;;19.00;99.90;;;;;;4934071;29;20432;-85
2022/07/23 01:20:42;;;;;;;12.80;7.82;;;19.00;99.90;;;;;;4965989;28;20394;-85
2022/07/23 01:23:10;;;;;;;14.40;8.33;;;18.90;99.90;;;;;;4949546;29;20801;-84
2022/07/23 01:25:53;;;;;;;16.10;8.70;;;18.90;99.90;;;;;;4933737;29;20465;-85
2022/07/23 01:28:21;;;;;;;14.27;7.95;;;18.80;99.90;;;;;;4933840;29;20536;-85
2022/07/23 01:30:49;;;;;;;15.32;7.93;;;18.80;99.90;;;;;;4949520;28;20406;-86
2022/07/23 01:33:17;;;;;;;15.52;8.05;;;18.70;99.90;;;;;;4933672;29;20429;-84
2022/07/23 01:35:45;;;;;;;12.60;7.93;;;18.70;99.90;;;;;;4933618;29;20416;-85
2022/07/23 01:38:18;;;;;;;15.67;8.47;;;18.80;99.90;;;;;;4933608;29;20492;-85
2022/07/23 01:40:46;;;;;;;13.93;8.68;;;18.80;99.90;;;;;;4949134;29;20401;-85
2022/07/23 01:43:21;;;;;;;15.35;8.82;;;18.80;99.90;;;;;;4933940;29;20873;-85
2022/07/23 01:45:53;;;;;;;13.02;8.40;;;18.70;99.90;;;;;;4933223;29;20493;-84
2022/07/23 01:48:21;;;;;;;13.95;8.40;;;18.60;99.90;;;;;;4933371;29;20931;-85
2022/07/23 01:51:07;;;;;;;14.80;9.35;;;18.60;99.90;;;;;;4934531;29;20433;-84
2022/07/23 01:53:42;;;;;;;14.32;9.02;;;18.50;99.90;;;;;;4934489;29;20405;-84
2022/07/23 01:56:10;;;;;;;13.15;8.20;;;18.50;99.90;;;;;;4949298;29;20489;-85
2022/07/23 01:58:37;;;;;;;14.85;8.52;;;18.50;99.90;;;;;;4934852;29;20453;-85
2022/07/23 02:01:05;;;;;;;14.15;9.68;;;18.60;99.90;;;;;;4933336;29;20398;-85
2022/07/23 02:03:33;;;;;;;12.75;7.85;;;18.60;99.90;;;;;;4934832;29;20433;-85
2022/07/23 02:06:01;;;;;;;13.63;8.93;;;18.60;99.90;;;;;;4949365;28;20778;-85
2022/07/23 02:08:29;;;;;;;13.70;9.40;;;18.60;99.90;;;;;;4965413;28;20445;-84
2022/07/23 02:10:57;;;;;;;14.07;9.70;;;18.50;99.90;;;;;;4949081;28;20406;-84
2022/07/23 02:13:29;;;;;;;13.75;8.65;;;18.50;99.90;;;;;;4933316;29;20789;-84
2022/07/23 02:16:01;;;;;;;14.90;8.77;;;18.50;99.90;;;;;;4934832;29;20473;-84
2022/07/23 02:18:29;;;;;;;12.88;8.25;;;18.50;99.90;;;;;;4965218;28;20413;-84
2022/07/23 02:20:57;;;;;;;17.05;10.00;;;18.50;99.90;;;;;;4965227;28;20402;-84
2022/07/23 02:23:24;;;;;;;14.60;9.17;;;18.60;99.90;;;;;;4934492;29;20998;-84
2022/07/23 02:25:53;;;;;;;15.77;10.45;;;18.60;99.90;;;;;;4965186;28;20402;-84
2022/07/23 02:28:21;;;;;;;14.63;9.00;;;18.60;99.90;;;;;;4934260;29;20452;-82
2022/07/23 02:30:48;;;;;;;16.77;10.57;;;18.50;99.90;;;;;;4964662;28;20398;-84
2022/07/23 02:33:16;;;;;;;14.50;9.55;;;18.50;99.90;;;;;;4932935;29;20414;-84
2022/07/23 02:35:45;;;;;;;13.68;8.00;;;18.50;99.90;;;;;;4932985;29;20420;-84
2022/07/23 02:38:13;;;;;;;13.00;8.80;;;18.50;99.90;;;;;;4932924;29;20398;-83
2022/07/23 02:40:41;;;;;;;15.85;9.35;;;18.70;99.90;;;;;;4932927;29;20402;-84
2022/07/23 02:43:08;;;;;;;12.02;9.20;;;18.60;99.90;;;;;;4950441;28;20954;-84
2022/07/23 02:45:36;;;;;;;13.40;9.93;;;18.60;99.90;;;;;;4952470;29;20461;-83
2022/07/23 02:48:04;;;;;;;14.32;10.38;;;18.60;99.90;;;;;;4936599;29;20414;-84
2022/07/23 02:50:32;;;;;;;14.10;9.07;;;18.50;99.90;;;;;;4951580;28;20422;-83
2022/07/23 02:53:00;;;;;;;12.90;9.02;;;18.50;99.90;;;;;;4936379;29;20932;-84
2022/07/23 02:55:28;;;;;;;13.32;9.07;;;18.50;99.90;;;;;;4936380;29;20900;-84
2022/07/23 02:57:59;;;;;;;14.52;10.30;;;18.50;99.90;;;;;;4968576;28;20480;-84
2022/07/23 03:00:28;;;;;;;13.63;8.73;;;18.50;99.90;;;;;;4933008;29;20400;-84
2022/07/23 03:02:55;;;;;;;18.60;9.13;;;18.50;99.90;;;;;;4948886;29;20405;-84
2022/07/23 03:05:23;;;;;;;16.00;9.20;;;18.50;99.90;;;;;;4918383;29;20946;-84
2022/07/23 03:07:51;;;;;;;16.05;10.60;;;18.60;99.90;;;;;;4901658;29;20986;-84
2022/07/23 03:10:20;;;;;;;15.75;11.60;;;18.60;99.90;;;;;;4933002;29;20491;-84
2022/07/23 03:12:47;;;;;;;15.57;11.80;;;18.60;99.90;;;;;;4932971;29;20412;-84
2022/07/23 03:15:15;;;;;;;16.05;11.02;;;18.50;99.90;;;;;;4918361;29;20396;-84
2022/07/23 03:17:43;;;;;;;14.45;9.35;;;18.50;99.90;;;;;;4949067;29;20400;-84
2022/07/23 03:20:11;;;;;;;13.57;10.32;;;18.50;99.90;;;;;;4918288;29;20400;-84
2022/07/23 03:22:39;;;;;;;16.45;11.02;;;18.50;99.90;;;;;;4917011;29;20503;-83
2022/07/23 03:25:07;;;;;;;17.02;11.85;;;18.50;99.90;;;;;;4918270;29;20662;-85
2022/07/23 03:27:35;;;;;;;14.70;11.13;;;18.50;99.90;;;;;;4916898;29;20400;-84
2022/07/23 03:30:04;;;;;;;17.50;12.50;;;18.60;99.90;;;;;;4948817;29;20411;-83
2022/07/23 03:32:33;;;;;;;19.85;13.73;;;18.60;99.90;;;;;;4916861;29;20941;-84
2022/07/23 03:35:01;;;;;;;20.50;14.38;;;18.60;99.90;;;;;;4932886;29;20879;-83
2022/07/23 03:37:29;;;;;;;19.07;12.93;;;18.60;99.90;;;;;;4948431;29;20495;-84
2022/07/23 03:39:58;;;;;;;15.25;10.60;;;18.60;99.90;;;;;;4948695;29;20479;-84
2022/07/23 03:42:27;;;;;;;16.38;11.20;;;18.70;99.90;;;;;;4932447;29;20407;-84
2022/07/23 03:44:55;;;;;;;16.92;10.82;;;18.70;99.90;;;;;;4943069;29;20416;-83
2022/07/23 03:47:22;;;;;;;19.20;13.50;;;18.70;99.90;;;;;;4970903;28;20409;-85
2022/07/23 03:49:50;;;;;;;17.38;13.02;;;18.70;99.90;;;;;;4952958;29;20512;-84
2022/07/23 03:52:18;;;;;;;18.43;13.30;;;18.70;99.90;;;;;;4954741;29;20404;-84
2022/07/23 03:54:46;;;;;;;15.07;12.18;;;18.70;99.90;;;;;;4954677;28;20404;-84
2022/07/23 03:57:13;;;;;;;16.73;13.15;;;18.60;99.90;;;;;;4954798;29;20953;-84
2022/07/23 03:59:41;;;;;;;18.55;13.73;;;18.60;99.90;;;;;;4954649;29;20408;-83
2022/07/23 04:02:09;;;;;;;17.95;13.55;;;18.60;99.90;;;;;;4955726;29;20396;-83
2022/07/23 04:04:37;;;;;;;20.20;14.23;;;18.60;99.90;;;;;;4954687;29;20436;-84
2022/07/23 04:07:06;;;;;;;22.42;14.88;;;18.60;99.90;;;;;;4954385;29;20396;-84
2022/07/23 04:09:34;;;;;;;18.37;13.70;;;18.60;99.90;;;;;;4954434;29;20392;-84
2022/07/23 04:12:02;;;;;;;19.60;14.00;;;18.70;99.90;;;;;;4954431;29;20934;-84
2022/07/23 04:14:29;;;;;;;20.92;15.40;;;18.80;99.90;;;;;;4970417;28;20487;-85
2022/07/23 04:16:57;;;;;;;21.30;14.97;;;18.80;99.90;;;;;;4946152;29;20468;-84
2022/07/23 04:19:26;;;;;;;19.57;15.03;;;18.90;99.90;;;;;;4936306;29;20402;-84
2022/07/23 04:22:04;;;;;;;20.33;14.50;;;18.90;99.90;;;;;;4935155;29;20421;-84
2022/07/23 04:24:34;;;;;;;18.23;14.40;;;18.90;99.90;;;;;;4967009;28;20418;-85
2022/07/23 04:27:02;;;;;;;19.98;14.45;;;18.90;99.90;;;;;;4935107;29;20406;-85
2022/07/23 04:29:31;;;;;;;19.40;13.30;;;19.00;99.90;;;;;;4935165;29;20472;-84
2022/07/23 04:31:59;;;;;;;18.08;13.55;;;19.00;99.90;;;;;;4936021;29;20410;-84
2022/07/23 04:34:27;;;;;;;20.95;14.00;;;19.00;99.90;;;;;;4936049;29;20501;-83
2022/07/23 04:36:55;;;;;;;19.05;12.85;;;19.10;99.90;;;;;;4934937;29;20433;-84
2022/07/23 04:39:23;;;;;;;19.25;13.35;;;19.10;99.90;;;;;;4934739;29;20398;-84
2022/07/23 04:41:51;;;;;;;17.45;13.30;;;19.20;99.90;;;;;;4934855;29;20402;-83
2022/07/23 04:44:19;;;;;;;16.42;12.73;;;19.20;99.90;;;;;;4934943;29;20406;-84
2022/07/23 04:46:48;;;;;;;18.15;13.23;;;19.20;99.90;;;;;;4934395;29;20421;-85
2022/07/23 04:49:17;;;;;;;18.77;12.95;;;19.30;99.90;;;;;;4934954;29;20406;-83
2022/07/23 04:51:46;;;;;;;16.63;12.10;;;19.40;99.90;;;;;;4918925;29;20416;-84
2022/07/23 04:54:14;;;;;;;17.02;11.52;;;19.50;99.90;;;;;;4924609;29;20767;-84
2022/07/23 04:56:43;;;;;;;16.73;11.80;;;19.60;99.90;;;;;;4915561;29;20414;-84
2022/07/23 04:59:11;;;;;;;16.02;12.07;;;19.70;99.90;;;;;;4915454;29;20994;-84
2022/07/23 05:01:41;;;;;;;17.08;11.55;;;19.80;99.90;;;;;;4931476;29;20426;-85
2022/07/23 05:04:10;;;;;;;17.33;11.97;;;19.80;99.90;;;;;;4915351;29;20760;-85
2022/07/23 05:06:39;;;;;;;18.00;12.27;;;20.00;99.90;;;;;;4946593;28;20823;-84
2022/07/23 05:09:07;;;;;;;16.58;11.88;;;20.00;99.90;;;;;;4915096;29;20407;-83
2022/07/23 05:11:34;;;;;;;16.75;11.13;;;20.00;99.90;;;;;;4915190;29;20638;-85
2022/07/23 05:14:02;;;;;;;15.73;11.00;;;20.00;99.90;;;;;;4915018;29;20407;-85
2022/07/23 05:16:30;;;;;;;17.10;11.63;;;20.00;99.90;;;;;;4915037;29;20816;-85
2022/07/23 05:19:02;;;;;;;18.70;11.40;;;20.10;99.90;;;;;;4946780;29;20404;-85
2022/07/23 05:21:33;;;;;;;20.42;12.13;;;20.10;99.90;;;;;;4914968;29;20479;-85
2022/07/23 05:24:01;;;;;;;17.98;12.07;;;20.10;99.90;;;;;;4914869;29;20963;-85
2022/07/23 05:26:29;;;;;;;16.85;11.82;;;20.10;99.90;;;;;;4914943;29;20427;-84
2022/07/23 05:28:57;;;;;;;17.83;12.68;;;20.10;99.90;;;;;;4914827;29;20812;-84
2022/07/23 05:31:25;;;;;;;19.50;13.00;;;20.20;99.90;;;;;;4917627;29;20478;-84
2022/07/23 05:33:52;;;;;;;18.48;12.50;;;20.20;99.90;;;;;;4932365;29;20417;-84
2022/07/23 05:36:21;;;;;;;16.75;11.88;;;20.20;99.90;;;;;;4962010;28;20431;-83
2022/07/23 05:38:52;;;;;;;16.42;10.85;;;20.30;99.90;;;;;;4912856;29;20487;-84
2022/07/23 05:41:20;;;;;;;17.07;10.90;;;20.30;99.90;;;;;;4946261;29;20472;-85
2022/07/23 05:43:48;;;;;;;19.15;11.27;;;20.40;99.90;;;;;;4915737;29;20498;-84
2022/07/23 05:46:16;;;;;;;15.68;11.65;;;20.40;99.90;;;;;;4930315;29;20413;-84
2022/07/23 05:48:49;;;;;;;18.02;11.55;;;20.40;99.90;;;;;;4946544;29;20507;-85
2022/07/23 05:51:43;;;;;;;21.92;17.90;;;20.40;99.90;;;;;;4925615;29;20591;-84
2022/07/23 05:54:15;;;;;;;19.05;11.00;;;20.40;99.90;;;;;;4930345;29;20827;-84
2022/07/23 05:56:43;;;;;;;13.97;10.40;;;20.30;99.90;;;;;;4930459;29;20978;-84
2022/07/23 05:59:12;;;;;;;15.15;10.18;;;20.30;99.90;;;;;;4933227;29;20971;-83
2022/07/23 06:01:41;;;;;;;16.65;10.35;;;20.30;99.90;;;;;;4932003;29;20438;-84
2022/07/23 06:04:10;;;;;;;15.70;10.50;;;20.10;99.90;;;;;;4923176;29;20773;-84
2022/07/23 06:06:44;;;;;;;14.52;9.88;;;20.10;99.90;;;;;;4938375;28;20900;-83
2022/07/23 06:09:13;;;;;;;13.13;10.13;;;20.10;99.90;;;;;;4932387;29;20410;-83
2022/07/23 06:11:41;;;;;;;17.30;10.73;;;20.10;99.90;;;;;;4920637;29;20406;-83
2022/07/23 06:14:09;;;;;;;15.15;10.43;;;20.20;99.90;;;;;;4930137;29;20496;-83
2022/07/23 06:16:57;;;;;;;16.27;11.60;;;20.20;99.90;;;;;;4932604;29;20410;-84
2022/07/23 06:19:26;;;;;;;13.48;10.55;;;20.20;99.90;;;;;;4968189;28;20489;-85
2022/07/23 06:21:54;;;;;;;17.43;10.37;;;20.20;99.90;;;;;;4928638;29;20394;-84
2022/07/23 06:24:22;;;;;;;14.15;9.88;;;20.20;99.90;;;;;;4930831;29;20415;-84
2022/07/23 06:26:50;;;;;;;14.45;10.32;;;20.20;99.90;;;;;;4926581;29;20914;-84
2022/07/23 06:29:18;;;;;;;12.75;10.10;;;20.20;99.90;;;;;;4927911;29;20494;-84
2022/07/23 06:31:46;;;;;;;12.95;9.73;;;20.20;99.90;;;;;;4933157;29;20427;-84
2022/07/23 06:34:14;;;;;;;14.93;10.18;;;20.20;99.90;;;;;;4967892;28;20927;-85
2022/07/23 06:36:43;;;;;;;12.97;9.90;;;20.20;99.90;;;;;;4926483;29;20412;-84
2022/07/23 06:39:12;;;;;;;10.93;8.40;;;20.20;99.90;;;;;;4952296;28;20409;-84
2022/07/23 06:41:46;;;;;;;13.65;10.02;;;20.10;99.90;;;;;;4968528;28;20764;-83
2022/07/23 06:44:18;;;;;;;12.68;8.90;;;20.10;99.90;;;;;;4968204;28;20421;-84
2022/07/23 06:46:48;;;;;;;11.77;9.27;;;20.10;99.90;;;;;;4968292;28;20469;-84
2022/07/23 06:49:16;;;;;;;11.45;8.98;;;20.00;99.90;;;;;;4968395;28;20413;-84
2022/07/23 06:51:45;;;;;;;11.77;9.38;;;20.10;99.90;;;;;;4937100;29;20516;-84
2022/07/23 06:54:12;;;;;;;13.83;9.23;;;20.10;99.90;;;;;;4936967;29;20413;-83
2022/07/23 06:56:42;;;;;;;12.48;9.52;;;20.10;99.90;;;;;;4966283;28;20410;-84
2022/07/23 06:59:10;;;;;;;16.50;9.85;;;20.00;99.90;;;;;;4936161;29;20473;-84
2022/07/23 07:01:38;;;;;;;14.57;9.57;;;20.00;99.90;;;;;;4941479;29;20458;-84
2022/07/23 07:04:06;;;;;;;12.52;10.07;;;20.10;99.90;;;;;;4939552;29;20500;-83
2022/07/23 07:06:34;;;;;;;12.77;9.95;;;20.10;99.90;;;;;;4940360;29;20410;-84
2022/07/23 07:09:02;;;;;;;15.50;9.83;;;20.10;99.90;;;;;;4967768;28;20398;-83
2022/07/23 07:11:30;;;;;;;14.32;9.80;;;20.10;99.90;;;;;;4967788;28;20409;-85
2022/07/23 07:13:58;;;;;;;12.27;9.93;;;20.10;99.90;;;;;;4951546;28;20781;-85
2022/07/23 07:16:26;;;;;;;14.18;10.98;;;20.20;99.90;;;;;;4936910;29;20461;-83
2022/07/23 07:18:59;;;;;;;17.42;13.93;;;20.20;99.90;;;;;;4936946;29;20482;-84
2022/07/23 07:21:28;;;;;;;15.97;10.73;;;20.20;99.90;;;;;;4940988;29;20481;-85
2022/07/23 07:23:56;;;;;;;15.75;10.73;;;20.10;99.90;;;;;;4929909;29;20414;-83
2022/07/23 07:26:24;;;;;;;14.90;10.48;;;20.10;99.90;;;;;;4936530;29;20418;-82
2022/07/23 07:28:51;;;;;;;13.30;10.43;;;20.00;99.90;;;;;;4932485;29;20452;-83
2022/07/23 07:31:19;;;;;;;14.70;10.68;;;20.10;99.90;;;;;;4936378;29;20410;-83
2022/07/23 07:33:47;;;;;;;13.48;10.13;;;20.10;99.90;;;;;;4936432;29;20417;-83
2022/07/23 07:36:15;;;;;;;14.57;10.60;;;20.00;99.90;;;;;;4932233;29;20396;-83
2022/07/23 07:38:45;;;;;;;12.07;10.02;;;20.10;99.90;;;;;;4926485;29;20426;-83
2022/07/23 07:41:13;;;;;;;13.30;10.50;;;20.20;99.90;;;;;;4936806;29;20398;-83
2022/07/23 07:43:41;;;;;;;15.33;10.47;;;20.10;99.90;;;;;;4936170;29;20508;-83
2022/07/23 07:46:09;;;;;;;13.35;10.13;;;20.20;99.90;;;;;;4966654;28;20480;-83
2022/07/23 07:48:37;;;;;;;14.40;10.83;;;20.20;99.90;;;;;;4936082;29;20420;-83
2022/07/23 07:51:05;;;;;;;13.63;10.70;;;20.30;99.90;;;;;;4934767;29;20420;-83
2022/07/23 07:53:33;;;;;;;13.27;10.40;;;20.40;99.90;;;;;;4933418;29;20528;-83
2022/07/23 07:56:01;;;;;;;31.70;27.17;;;20.50;99.90;;;;;;4925615;29;20448;-84
2022/07/23 07:58:29;;;;;;;13.32;10.07;;;20.50;99.90;;;;;;4928732;29;20849;-84
2022/07/23 08:00:56;;;;;;;14.77;11.85;;;20.60;99.90;;;;;;4934927;29;20410;-83
2022/07/23 08:03:24;;;;;;;13.95;10.38;;;20.60;99.90;;;;;;4940874;28;20420;-83
2022/07/23 08:05:52;;;;;;;11.40;10.20;;;20.60;99.90;;;;;;4934625;29;20417;-83
2022/07/23 08:08:20;;;;;;;12.57;9.02;;;20.60;99.90;;;;;;4935067;29;20410;-82
2022/07/23 08:10:49;;;;;;;12.13;9.65;;;20.60;99.90;;;;;;4921988;29;20989;-83
2022/07/23 08:13:18;;;;;;;12.30;9.27;;;20.70;99.90;;;;;;4925214;29;20421;-84
2022/07/23 08:15:45;;;;;;;12.80;10.13;;;20.80;99.90;;;;;;4932466;29;20912;-86
2022/07/23 08:18:15;;;;;;;10.50;8.80;;;20.80;99.90;;;;;;4917956;29;20495;-85
2022/07/23 08:20:42;;;;;;;11.15;9.30;;;20.90;99.90;;;;;;4933569;29;20409;-85
2022/07/23 08:23:10;;;;;;;12.85;10.10;;;20.90;99.90;;;;;;4924076;29;20833;-85
2022/07/23 08:25:42;;;;;;;10.60;9.35;;;21.00;99.90;;;;;;4964257;28;20406;-85
2022/07/23 08:28:12;;;;;;;11.50;8.88;;;21.10;99.90;;;;;;4932584;29;20810;-86
2022/07/23 08:30:44;;;;;;;10.88;9.07;;;21.10;99.90;;;;;;4964561;28;20468;-86
2022/07/23 08:33:17;;;;;;;13.20;9.37;;;21.20;99.90;;;;;;4964067;28;20421;-86
2022/07/23 08:36:03;;;;;;;11.65;9.00;;;21.30;99.90;;;;;;4938415;29;20697;-86
2022/07/23 08:38:32;;;;;;;12.80;9.00;;;21.30;99.90;;;;;;4935207;29;20413;-86
2022/07/23 08:41:00;;;;;;;11.83;8.93;;;21.20;99.90;;;;;;4932192;29;20769;-86
2022/07/23 08:43:30;;;;;;;10.63;8.98;;;21.20;99.90;;;;;;4939868;29;20398;-85
2022/07/23 08:46:01;;;;;;;12.40;9.45;;;21.30;99.90;;;;;;4937132;29;20441;-86
2022/07/23 08:48:34;;;;;;;12.85;9.00;;;21.40;99.90;;;;;;4925320;29;20473;-86
2022/07/23 08:51:05;;;;;;;11.63;9.23;;;21.40;99.90;;;;;;4930703;29;20766;-86
2022/07/23 08:53:37;;;;;;;11.30;9.20;;;21.50;99.90;;;;;;4944368;29;20480;-85
2022/07/23 08:56:06;;;;;;;12.48;9.50;;;21.60;99.90;;;;;;4947064;29;20411;-85
2022/07/23 08:58:36;;;;;;;12.68;10.10;;;21.60;99.90;;;;;;4940599;29;20782;-85
2022/07/23 09:01:04;;;;;;;12.57;10.18;;;21.70;99.90;;;;;;4935986;29;20410;-86
2022/07/23 09:03:35;;;;;;;11.50;9.35;;;21.70;99.90;;;;;;4949533;28;20897;-85
2022/07/23 09:06:04;;;;;;;12.82;9.60;;;21.80;99.90;;;;;;4933532;29;20752;-86
2022/07/23 09:08:40;;;;;;;11.07;9.63;;;21.90;99.90;;;;;;4930507;29;20843;-86
2022/07/23 09:11:13;;;;;;;13.25;10.00;;;22.00;99.90;;;;;;4935414;28;20784;-85
2022/07/23 09:13:54;;;;;;;13.17;10.27;;;22.00;99.90;;;;;;4954434;28;20414;-85
2022/07/23 09:16:28;;;;;;;12.90;9.90;;;22.20;99.90;;;;;;4943182;29;20920;-85
2022/07/23 09:19:00;;;;;;;15.10;10.52;;;22.20;99.90;;;;;;4934962;29;20398;-85
2022/07/23 09:21:32;;;;;;;13.25;10.65;;;22.10;99.90;;;;;;4934361;29;20802;-86
2022/07/23 09:24:04;;;;;;;12.57;10.40;;;22.20;99.90;;;;;;4934344;29;20512;-85
2022/07/23 09:26:33;;;;;;;14.45;10.30;;;22.30;99.90;;;;;;4948701;29;20453;-85
2022/07/23 09:29:19;;;;;;;11.02;9.73;;;22.10;99.90;;;;;;4948072;29;20422;-85
2022/07/23 09:31:51;;;;;;;12.73;11.10;;;22.10;99.90;;;;;;4964880;28;20420;-85
2022/07/23 09:34:23;;;;;;;13.38;10.40;;;22.10;99.90;;;;;;4965254;28;20406;-85
2022/07/23 09:36:57;;;;;;;14.05;10.15;;;22.10;99.90;;;;;;4954540;28;20900;-82
2022/07/23 09:39:31;;;;;;;14.15;10.27;;;22.00;99.90;;;;;;4933266;29;20979;-84
2022/07/23 09:42:23;;;;;;;11.30;10.10;;;22.00;99.90;;;;;;4939723;29;20466;-86
2022/07/23 09:44:56;;;;;;;12.10;9.75;;;21.90;99.90;;;;;;4931716;29;20414;-85
2022/07/23 09:47:25;;;;;;;11.52;9.40;;;21.90;99.90;;;;;;4962630;28;20830;-85
2022/07/23 09:50:03;;;;;;;11.17;9.67;;;22.00;99.90;;;;;;4947194;29;20404;-82
2022/07/23 09:52:34;;;;;;;12.00;9.65;;;22.10;99.90;;;;;;4937151;29;20401;-87
2022/07/23 09:55:05;;;;;;;12.13;9.32;;;22.00;99.90;;;;;;4962955;28;20449;-85
2022/07/23 09:57:33;;;;;;;10.82;9.52;;;22.10;99.90;;;;;;4936651;29;20433;-84
2022/07/23 10:00:05;;;;;;;12.27;10.20;;;22.30;99.90;;;;;;4964451;28;20873;-85
2022/07/23 10:02:33;;;;;;;19.15;12.02;;;22.60;99.90;;;;;;4932796;29;20509;-85
2022/07/23 10:05:21;;;;;;;13.35;10.50;;;22.80;99.90;;;;;;4944587;28;20421;-86
2022/07/23 10:08:17;;;;;;;11.38;9.38;;;22.80;99.90;;;;;;4933443;29;20490;-86
2022/07/23 10:10:55;;;;;;;10.50;9.35;;;22.70;99.90;;;;;;4933436;29;20413;-86
2022/07/23 10:13:50;;;;;;;10.65;9.10;;;22.60;99.90;;;;;;4931510;29;20803;-84
2022/07/23 10:16:19;;;;;;;12.80;9.80;;;22.40;99.90;;;;;;4948544;28;20510;-83
2022/07/23 10:18:54;;;;;;;10.97;9.73;;;22.30;99.90;;;;;;4929698;29;20390;-82
2022/07/23 10:21:35;;;;;;;11.05;9.60;;;22.20;99.90;;;;;;4926912;29;20402;-83
2022/07/23 10:24:22;;;;;;;13.68;9.70;;;22.40;99.90;;;;;;4946873;28;20995;-83
2022/07/23 10:27:47;;;;;;;11.02;9.68;;;22.60;99.90;;;;;;4926451;29;20465;-84
2022/07/23 10:30:43;;;;;;;12.75;10.23;;;22.60;99.90;;;;;;4950102;29;20941;-83
2022/07/23 10:33:38;;;;;;;15.13;10.13;;;22.50;99.90;;;;;;4930480;29;20988;-83
2022/07/23 10:36:19;;;;;;;11.30;9.82;;;22.60;99.90;;;;;;4932511;29;20390;-83
2022/07/23 10:38:55;;;;;;;11.27;10.10;;;22.50;99.90;;;;;;4932271;29;20781;-84
2022/07/23 10:41:38;;;;;;;11.10;9.65;;;22.50;99.90;;;;;;4932387;29;20390;-84
2022/07/23 10:44:08;;;;;;;11.13;9.37;;;22.70;99.90;;;;;;4929630;29;20423;-84
2022/07/23 10:47:39;;;;;;;11.27;9.25;;;22.70;99.90;;;;;;4932837;29;20405;-83
2022/07/23 10:49:42;;;;;;;10.90;9.32;;;22.70;99.90;;;;;;4929033;29;20766;-84
2022/07/23 10:52:14;;;;;;;12.45;9.60;;;22.80;99.90;;;;;;4933613;29;20405;-84
2022/07/23 10:54:52;;;;;;;9.90;8.90;;;23.00;99.90;;;;;;4963936;28;20789;-84
2022/07/23 10:57:27;;;;;;;10.97;9.80;;;23.00;99.90;;;;;;4945676;29;20841;-82
2022/07/23 11:00:05;;;;;;;10.15;9.15;;;23.00;99.90;;;;;;4961397;28;20412;-83
2022/07/23 11:02:34;;;;;;;11.38;9.70;;;22.80;99.90;;;;;;4964145;28;20472;-83
2022/07/23 11:05:08;;;;;;;10.43;9.33;;;22.80;99.90;;;;;;4937229;29;20443;-83
2022/07/23 11:07:56;;;;;;;10.47;9.47;;;22.80;99.90;;;;;;4931804;29;20980;-83
2022/07/23 11:10:42;;;;;;;11.05;9.75;;;23.10;99.90;;;;;;4927473;29;20426;-81
2022/07/23 11:13:22;;;;;;;10.27;9.10;;;23.20;99.90;;;;;;4936703;29;20400;-84
2022/07/23 11:16:04;;;;;;;10.20;9.18;;;23.50;99.90;;;;;;4942996;29;20394;-84
2022/07/23 11:18:44;;;;;;;11.18;9.70;;;23.60;99.90;;;;;;4931422;29;20418;-84
2022/07/23 11:21:28;;;;;;;12.38;9.85;;;23.70;99.90;;;;;;4936359;29;20754;-84
2022/07/23 11:24:10;;;;;;;11.85;9.57;;;23.90;99.90;;;;;;4963261;28;20916;-83
2022/07/23 11:26:42;;;;;;;10.75;9.55;;;24.00;99.90;;;;;;4964610;28;20413;-84
2022/07/23 11:29:26;;;;;;;10.93;9.82;;;24.00;99.90;;;;;;4933496;29;20497;-84
2022/07/23 11:31:59;;;;;;;11.20;10.10;;;23.90;99.90;;;;;;4933758;29;20978;-84
2022/07/23 11:34:39;;;;;;;11.00;9.90;;;23.80;99.90;;;;;;4922651;29;20827;-82
2022/07/23 11:37:11;;;;;;;10.63;9.52;;;23.90;99.90;;;;;;4965413;28;20410;-82
2022/07/23 11:39:39;;;;;;;13.30;11.57;;;23.90;99.90;;;;;;4938813;29;20417;-85
2022/07/23 11:42:08;;;;;;;13.13;10.97;;;24.00;99.90;;;;;;4935092;29;20812;-82
2022/07/23 11:44:38;;;;;;;10.75;9.65;;;24.00;99.90;;;;;;4936491;29;20452;-83
2022/07/23 11:47:09;;;;;;;11.90;9.88;;;24.00;99.90;;;;;;4935278;29;20422;-82
2022/07/23 11:49:38;;;;;;;13.27;11.40;;;24.10;99.90;;;;;;4927952;29;20422;-83
2022/07/23 11:52:14;;;;;;;14.13;10.50;;;24.10;99.90;;;;;;4937224;29;20469;-83
2022/07/23 11:54:55;;;;;;;11.25;9.60;;;24.10;99.90;;;;;;4965290;28;20410;-83
2022/07/23 11:57:30;;;;;;;11.85;10.68;;;24.10;99.90;;;;;;4935408;29;20409;-82
2022/07/23 12:00:11;;;;;;;12.25;10.63;;;24.10;99.90;;;;;;4935541;29;20508;-83
2022/07/23 12:02:45;;;;;;;12.10;10.80;;;24.10;99.90;;;;;;4924343;29;20415;-82
2022/07/23 12:05:16;;;;;;;12.38;11.07;;;24.10;99.90;;;;;;4933201;29;20424;-84
2022/07/23 12:07:45;;;;;;;12.35;11.05;;;23.90;99.90;;;;;;4925126;29;20457;-83
2022/07/23 12:10:23;;;;;;;12.93;11.50;;;23.70;99.90;;;;;;4934627;29;20438;-82
2022/07/23 12:12:53;;;;;;;12.68;11.00;;;23.60;99.90;;;;;;4934393;29;20412;-82
2022/07/23 12:15:32;;;;;;;16.05;11.38;;;23.50;99.90;;;;;;4943019;28;20457;-83
2022/07/23 12:18:01;;;;;;;16.17;12.05;;;23.20;99.90;;;;;;4966541;28;20477;-83
2022/07/23 12:20:32;;;;;;;14.20;11.25;;;23.20;99.90;;;;;;4933207;29;20489;-83
2022/07/23 12:23:04;;;;;;;13.18;10.45;;;23.20;99.90;;;;;;4935432;29;20457;-83
2022/07/23 12:25:35;;;;;;;14.83;11.80;;;23.10;99.90;;;;;;4933319;29;20409;-83
2022/07/23 12:28:09;;;;;;;12.38;10.63;;;23.00;99.90;;;;;;4934948;29;20815;-84
2022/07/23 12:30:47;;;;;;;12.23;10.85;;;23.00;99.90;;;;;;4935158;29;20410;-84
2022/07/23 12:33:30;;;;;;;12.23;10.40;;;23.00;99.90;;;;;;4935024;29;20405;-84
2022/07/23 12:36:03;;;;;;;13.05;10.50;;;23.20;99.90;;;;;;4935952;29;20772;-85
2022/07/23 12:38:40;;;;;;;12.35;10.95;;;23.20;99.90;;;;;;4933427;29;20487;-85
2022/07/23 12:41:09;;;;;;;13.23;11.37;;;23.30;99.90;;;;;;4934740;29;20405;-85
2022/07/23 12:43:38;;;;;;;12.48;10.82;;;23.30;99.90;;;;;;4935802;29;20753;-85
2022/07/23 12:46:16;;;;;;;12.60;11.40;;;23.60;99.90;;;;;;4934399;29;20494;-84
2022/07/23 12:48:49;;;;;;;11.98;10.70;;;23.60;99.90;;;;;;4966400;28;20401;-84
2022/07/23 12:51:29;;;;;;;13.48;11.52;;;23.50;99.90;;;;;;4951788;28;20421;-85